sensor_id;sensor_type;location;lat;lon;timestamp;temperature;humidity
7360;DHT22;3720;48.274;7.796;2023-05-10T00:00:57;15.10;99.90
7360;DHT22;3720;48.274;7.796;2023-05-10T00:03:30;15.10;99.90
7360;DHT22;3720;48.274;7.796;2023-05-10T00:06:02;15.00;99.90
7360;DHT22;3720;48.274;7.796;2023-05-10T00:08:34;15.10;99.90
7360;DHT22;3720;48.274;7.796;2023-05-10T00:11:07;15.10;99.90
7360;DHT22;3720;48.274;7.796;2023-05-10T00:13:39;15.10;99.90
7360;DHT22;3720;48.274;7.796;2023-05-10T00:16:11;15.00;99.90
7360;DHT22;3720;48.274;7.796;2023-05-10T00:18:43;15.00;99.90
7360;DHT22;3720;48.274;7.796;2023-05-10T00:21:15;15.00;99.90
7360;DHT22;3720;48.274;7.796;2023-05-10T00:23:47;15.10;99.90
7360;DHT22;3720;48.274;7.796;2023-05-10T00:26:20;15.00;99.90
7360;DHT22;3720;48.274;7.796;2023-05-10T00:28:52;15.00;99.90
7360;DHT22;3720;48.274;7.796;2023-05-10T00:31:24;15.00;99.90
7360;DHT22;3720;48.274;7.796;2023-05-10T00:33:56;15.00;99.90
7360;DHT22;3720;48.274;7.796;2023-05-10T00:36:28;15.00;99.90
7360;DHT22;3720;48.274;7.796;2023-05-10T00:38:59;15.00;99.90
7360;DHT22;3720;48.274;7.796;2023-05-10T00:41:35;15.00;99.90
7360;DHT22;3720;48.274;7.796;2023-05-10T00:44:07;15.00;99.90
7360;DHT22;3720;48.274;7.796;2023-05-10T00:46:39;15.00;99.90
7360;DHT22;3720;48.274;7.796;2023-05-10T00:49:11;15.00;99.90
7360;DHT22;3720;48.274;7.796;2023-05-10T00:51:43;14.90;99.90
7360;DHT22;3720;48.274;7.796;2023-05-10T00:54:15;14.90;99.90
7360;DHT22;3720;48.274;7.796;2023-05-10T00:56:49;14.90;99.90
7360;DHT22;3720;48.274;7.796;2023-05-10T00:59:22;14.80;99.90
7360;DHT22;3720;48.274;7.796;2023-05-10T01:01:54;14.80;99.90
7360;DHT22;3720;48.274;7.796;2023-05-10T01:04:26;14.90;99.90
7360;DHT22;3720;48.274;7.796;2023-05-10T01:06:58;14.90;99.90
7360;DHT22;3720;48.274;7.796;2023-05-10T01:09:31;14.90;99.90
7360;DHT22;3720;48.274;7.796;2023-05-10T01:12:06;14.90;99.90
7360;DHT22;3720;48.274;7.796;2023-05-10T01:14:38;15.00;99.90
7360;DHT22;3720;48.274;7.796;2023-05-10T01:17:11;14.90;99.90
7360;DHT22;3720;48.274;7.796;2023-05-10T01:19:44;14.90;99.90
7360;DHT22;3720;48.274;7.796;2023-05-10T01:22:41;14.90;99.90
7360;DHT22;3720;48.274;7.796;2023-05-10T01:32:09;14.80;99.90
7360;DHT22;3720;48.274;7.796;2023-05-10T01:34:51;14.90;99.90
7360;DHT22;3720;48.274;7.796;2023-05-10T01:37:30;14.80;99.90
7360;DHT22;3720;48.274;7.796;2023-05-10T01:40:08;14.70;99.90
7360;DHT22;3720;48.274;7.796;2023-05-10T01:42:44;14.80;99.90
7360;DHT22;3720;48.274;7.796;2023-05-10T01:45:23;14.70;99.90
7360;DHT22;3720;48.274;7.796;2023-05-10T01:48:05;14.70;99.90
7360;DHT22;3720;48.274;7.796;2023-05-10T01:50:41;14.70;99.90
7360;DHT22;3720;48.274;7.796;2023-05-10T01:53:18;14.70;99.90
7360;DHT22;3720;48.274;7.796;2023-05-10T01:55:53;14.60;99.90
7360;DHT22;3720;48.274;7.796;2023-05-10T01:58:29;14.70;99.90
7360;DHT22;3720;48.274;7.796;2023-05-10T02:01:03;14.60;99.90
7360;DHT22;3720;48.274;7.796;2023-05-10T02:03:38;14.70;99.90
7360;DHT22;3720;48.274;7.796;2023-05-10T02:06:12;14.80;99.90
7360;DHT22;3720;48.274;7.796;2023-05-10T02:08:47;14.70;99.90
7360;DHT22;3720;48.274;7.796;2023-05-10T02:11:20;14.70;99.90
7360;DHT22;3720;48.274;7.796;2023-05-10T02:13:54;14.70;99.90
7360;DHT22;3720;48.274;7.796;2023-05-10T02:16:26;14.60;99.90
7360;DHT22;3720;48.274;7.796;2023-05-10T02:19:03;14.60;99.90
7360;DHT22;3720;48.274;7.796;2023-05-10T02:21:36;14.60;99.90
7360;DHT22;3720;48.274;7.796;2023-05-10T02:24:10;14.60;99.90
7360;DHT22;3720;48.274;7.796;2023-05-10T02:26:43;14.70;99.90
7360;DHT22;3720;48.274;7.796;2023-05-10T02:29:16;14.60;99.90
7360;DHT22;3720;48.274;7.796;2023-05-10T02:31:51;14.70;99.90
7360;DHT22;3720;48.274;7.796;2023-05-10T02:34:26;14.60;99.90
7360;DHT22;3720;48.274;7.796;2023-05-10T02:36:59;14.50;99.90
7360;DHT22;3720;48.274;7.796;2023-05-10T02:39:33;14.50;99.90
7360;DHT22;3720;48.274;7.796;2023-05-10T02:42:05;14.50;99.90
7360;DHT22;3720;48.274;7.796;2023-05-10T02:44:38;14.50;99.90
7360;DHT22;3720;48.274;7.796;2023-05-10T02:47:12;14.60;99.90
7360;DHT22;3720;48.274;7.796;2023-05-10T02:49:45;14.50;99.90
7360;DHT22;3720;48.274;7.796;2023-05-10T02:52:23;14.50;99.90
7360;DHT22;3720;48.274;7.796;2023-05-10T02:55:01;14.50;99.90
7360;DHT22;3720;48.274;7.796;2023-05-10T02:57:35;14.50;99.90
7360;DHT22;3720;48.274;7.796;2023-05-10T03:00:11;14.60;99.90
7360;DHT22;3720;48.274;7.796;2023-05-10T03:02:43;14.70;99.90
7360;DHT22;3720;48.274;7.796;2023-05-10T03:05:16;14.70;99.90
7360;DHT22;3720;48.274;7.796;2023-05-10T03:07:48;14.70;99.90
7360;DHT22;3720;48.274;7.796;2023-05-10T03:10:22;14.60;99.90
7360;DHT22;3720;48.274;7.796;2023-05-10T03:13:06;14.60;99.90
7360;DHT22;3720;48.274;7.796;2023-05-10T03:15:47;14.50;99.90
7360;DHT22;3720;48.274;7.796;2023-05-10T03:18:32;14.40;99.90
7360;DHT22;3720;48.274;7.796;2023-05-10T03:21:10;14.40;99.90
7360;DHT22;3720;48.274;7.796;2023-05-10T03:23:45;14.40;99.90
7360;DHT22;3720;48.274;7.796;2023-05-10T03:26:23;14.30;99.90
7360;DHT22;3720;48.274;7.796;2023-05-10T03:28:57;14.30;99.90
7360;DHT22;3720;48.274;7.796;2023-05-10T03:31:29;14.30;99.90
7360;DHT22;3720;48.274;7.796;2023-05-10T03:34:01;14.30;99.90
7360;DHT22;3720;48.274;7.796;2023-05-10T03:36:35;14.30;99.90
7360;DHT22;3720;48.274;7.796;2023-05-10T03:39:07;14.30;99.90
7360;DHT22;3720;48.274;7.796;2023-05-10T03:41:39;14.40;99.90
7360;DHT22;3720;48.274;7.796;2023-05-10T03:44:11;14.40;99.90
7360;DHT22;3720;48.274;7.796;2023-05-10T03:46:43;14.40;99.90
7360;DHT22;3720;48.274;7.796;2023-05-10T03:49:16;14.40;99.90
7360;DHT22;3720;48.274;7.796;2023-05-10T03:51:49;14.30;99.90
7360;DHT22;3720;48.274;7.796;2023-05-10T03:54:21;14.30;99.90
7360;DHT22;3720;48.274;7.796;2023-05-10T03:56:52;14.30;99.90
7360;DHT22;3720;48.274;7.796;2023-05-10T03:59:24;14.30;99.90
7360;DHT22;3720;48.274;7.796;2023-05-10T04:01:56;14.20;99.90
7360;DHT22;3720;48.274;7.796;2023-05-10T04:04:29;14.20;99.90
7360;DHT22;3720;48.274;7.796;2023-05-10T04:07:02;14.10;99.90
7360;DHT22;3720;48.274;7.796;2023-05-10T04:09:34;14.20;99.90
7360;DHT22;3720;48.274;7.796;2023-05-10T04:12:07;14.20;99.90
7360;DHT22;3720;48.274;7.796;2023-05-10T04:14:39;14.20;99.90
7360;DHT22;3720;48.274;7.796;2023-05-10T04:17:11;14.20;99.90
7360;DHT22;3720;48.274;7.796;2023-05-10T04:19:42;14.20;99.90
7360;DHT22;3720;48.274;7.796;2023-05-10T04:22:16;14.20;99.90
7360;DHT22;3720;48.274;7.796;2023-05-10T04:24:48;14.20;99.90
7360;DHT22;3720;48.274;7.796;2023-05-10T04:27:19;14.20;99.90
7360;DHT22;3720;48.274;7.796;2023-05-10T04:29:51;14.10;99.90
7360;DHT22;3720;48.274;7.796;2023-05-10T04:32:23;14.10;99.90
7360;DHT22;3720;48.274;7.796;2023-05-10T04:34:55;14.20;99.90
7360;DHT22;3720;48.274;7.796;2023-05-10T04:37:29;14.10;99.90
7360;DHT22;3720;48.274;7.796;2023-05-10T04:40:01;14.10;99.90
7360;DHT22;3720;48.274;7.796;2023-05-10T04:42:33;14.00;99.90
7360;DHT22;3720;48.274;7.796;2023-05-10T04:45:06;14.10;99.90
7360;DHT22;3720;48.274;7.796;2023-05-10T04:47:39;14.10;99.90
7360;DHT22;3720;48.274;7.796;2023-05-10T04:50:12;14.10;99.90
7360;DHT22;3720;48.274;7.796;2023-05-10T04:52:45;14.10;99.90
7360;DHT22;3720;48.274;7.796;2023-05-10T04:55:17;14.10;99.90
7360;DHT22;3720;48.274;7.796;2023-05-10T04:57:48;14.10;99.90
7360;DHT22;3720;48.274;7.796;2023-05-10T05:00:21;14.20;99.90
7360;DHT22;3720;48.274;7.796;2023-05-10T05:02:53;14.10;99.90
7360;DHT22;3720;48.274;7.796;2023-05-10T05:05:24;14.20;99.90
7360;DHT22;3720;48.274;7.796;2023-05-10T05:07:58;14.20;99.90
7360;DHT22;3720;48.274;7.796;2023-05-10T05:10:30;14.20;99.90
7360;DHT22;3720;48.274;7.796;2023-05-10T05:13:02;14.30;99.90
7360;DHT22;3720;48.274;7.796;2023-05-10T05:15:34;14.30;99.90
7360;DHT22;3720;48.274;7.796;2023-05-10T05:18:06;14.30;99.90
7360;DHT22;3720;48.274;7.796;2023-05-10T05:20:38;14.30;99.90
7360;DHT22;3720;48.274;7.796;2023-05-10T05:23:11;14.30;99.90
7360;DHT22;3720;48.274;7.796;2023-05-10T05:25:43;14.30;99.90
7360;DHT22;3720;48.274;7.796;2023-05-10T05:28:15;14.30;99.90
7360;DHT22;3720;48.274;7.796;2023-05-10T05:30:47;14.30;99.90
7360;DHT22;3720;48.274;7.796;2023-05-10T05:33:19;14.30;99.90
7360;DHT22;3720;48.274;7.796;2023-05-10T05:35:51;14.30;99.90
7360;DHT22;3720;48.274;7.796;2023-05-10T05:38:24;14.40;99.90
7360;DHT22;3720;48.274;7.796;2023-05-10T05:40:56;14.30;99.90
7360;DHT22;3720;48.274;7.796;2023-05-10T05:43:29;14.40;99.90
7360;DHT22;3720;48.274;7.796;2023-05-10T05:46:01;14.40;99.90
7360;DHT22;3720;48.274;7.796;2023-05-10T05:48:32;14.40;99.90
7360;DHT22;3720;48.274;7.796;2023-05-10T05:51:04;14.50;99.90
7360;DHT22;3720;48.274;7.796;2023-05-10T05:53:37;14.50;99.90
7360;DHT22;3720;48.274;7.796;2023-05-10T05:56:09;14.50;99.90
7360;DHT22;3720;48.274;7.796;2023-05-10T05:58:41;14.60;99.90
7360;DHT22;3720;48.274;7.796;2023-05-10T06:01:13;14.50;99.90
7360;DHT22;3720;48.274;7.796;2023-05-10T06:03:45;14.60;99.90
7360;DHT22;3720;48.274;7.796;2023-05-10T06:06:17;14.60;99.90
7360;DHT22;3720;48.274;7.796;2023-05-10T06:08:50;14.50;99.90
7360;DHT22;3720;48.274;7.796;2023-05-10T06:11:22;14.50;99.90
7360;DHT22;3720;48.274;7.796;2023-05-10T06:13:54;14.40;99.90
7360;DHT22;3720;48.274;7.796;2023-05-10T06:16:26;14.40;99.90
7360;DHT22;3720;48.274;7.796;2023-05-10T06:18:58;14.40;99.90
7360;DHT22;3720;48.274;7.796;2023-05-10T06:21:30;14.40;99.90
7360;DHT22;3720;48.274;7.796;2023-05-10T06:24:04;14.40;99.90
7360;DHT22;3720;48.274;7.796;2023-05-10T06:26:37;14.40;99.90
7360;DHT22;3720;48.274;7.796;2023-05-10T06:29:08;14.40;99.90
7360;DHT22;3720;48.274;7.796;2023-05-10T06:31:40;14.40;99.90
7360;DHT22;3720;48.274;7.796;2023-05-10T06:34:12;14.30;99.90
7360;DHT22;3720;48.274;7.796;2023-05-10T06:36:45;14.30;99.90
7360;DHT22;3720;48.274;7.796;2023-05-10T06:39:18;14.20;99.90
7360;DHT22;3720;48.274;7.796;2023-05-10T06:41:50;14.30;99.90
7360;DHT22;3720;48.274;7.796;2023-05-10T06:44:22;14.30;99.90
7360;DHT22;3720;48.274;7.796;2023-05-10T06:46:54;14.30;99.90
7360;DHT22;3720;48.274;7.796;2023-05-10T06:49:26;14.30;99.90
7360;DHT22;3720;48.274;7.796;2023-05-10T06:51:58;14.40;99.90
7360;DHT22;3720;48.274;7.796;2023-05-10T06:54:31;14.40;99.90
7360;DHT22;3720;48.274;7.796;2023-05-10T06:57:03;14.40;99.90
7360;DHT22;3720;48.274;7.796;2023-05-10T06:59:36;14.40;99.90
7360;DHT22;3720;48.274;7.796;2023-05-10T07:02:07;14.50;99.90
7360;DHT22;3720;48.274;7.796;2023-05-10T07:04:39;14.40;99.90
7360;DHT22;3720;48.274;7.796;2023-05-10T07:07:11;14.50;99.90
7360;DHT22;3720;48.274;7.796;2023-05-10T07:09:45;14.50;99.90
7360;DHT22;3720;48.274;7.796;2023-05-10T07:12:17;14.50;99.90
7360;DHT22;3720;48.274;7.796;2023-05-10T07:14:49;14.50;99.90
7360;DHT22;3720;48.274;7.796;2023-05-10T07:17:21;14.60;99.90
7360;DHT22;3720;48.274;7.796;2023-05-10T07:19:53;14.60;99.90
7360;DHT22;3720;48.274;7.796;2023-05-10T07:22:25;14.70;99.90
7360;DHT22;3720;48.274;7.796;2023-05-10T07:24:59;14.70;99.90
7360;DHT22;3720;48.274;7.796;2023-05-10T07:27:30;14.80;99.90
7360;DHT22;3720;48.274;7.796;2023-05-10T07:30:03;14.80;99.90
7360;DHT22;3720;48.274;7.796;2023-05-10T07:32:35;14.90;99.90
7360;DHT22;3720;48.274;7.796;2023-05-10T07:35:08;14.90;99.90
7360;DHT22;3720;48.274;7.796;2023-05-10T07:37:40;15.00;99.90
7360;DHT22;3720;48.274;7.796;2023-05-10T07:40:14;15.00;99.90
7360;DHT22;3720;48.274;7.796;2023-05-10T07:42:45;14.90;99.90
7360;DHT22;3720;48.274;7.796;2023-05-10T07:45:17;15.00;99.90
7360;DHT22;3720;48.274;7.796;2023-05-10T07:47:49;15.00;99.90
7360;DHT22;3720;48.274;7.796;2023-05-10T07:50:21;15.00;99.90
7360;DHT22;3720;48.274;7.796;2023-05-10T07:52:53;15.00;99.90
7360;DHT22;3720;48.274;7.796;2023-05-10T07:55:27;15.00;99.90
7360;DHT22;3720;48.274;7.796;2023-05-10T07:57:59;15.00;99.90
7360;DHT22;3720;48.274;7.796;2023-05-10T08:00:32;15.10;99.90
7360;DHT22;3720;48.274;7.796;2023-05-10T08:03:04;15.20;99.90
7360;DHT22;3720;48.274;7.796;2023-05-10T08:05:36;15.30;99.90
7360;DHT22;3720;48.274;7.796;2023-05-10T08:08:08;15.50;99.90
7360;DHT22;3720;48.274;7.796;2023-05-10T08:10:41;15.60;99.90
7360;DHT22;3720;48.274;7.796;2023-05-10T08:13:13;15.80;99.90
7360;DHT22;3720;48.274;7.796;2023-05-10T08:15:45;16.00;99.90
7360;DHT22;3720;48.274;7.796;2023-05-10T08:18:17;16.10;99.90
7360;DHT22;3720;48.274;7.796;2023-05-10T08:20:49;16.20;99.90
7360;DHT22;3720;48.274;7.796;2023-05-10T08:23:20;16.40;99.90
7360;DHT22;3720;48.274;7.796;2023-05-10T08:25:54;16.40;99.90
7360;DHT22;3720;48.274;7.796;2023-05-10T08:28:26;16.50;99.90
7360;DHT22;3720;48.274;7.796;2023-05-10T08:30:58;16.50;99.90
7360;DHT22;3720;48.274;7.796;2023-05-10T08:33:29;16.60;99.90
7360;DHT22;3720;48.274;7.796;2023-05-10T08:36:01;16.50;99.90
7360;DHT22;3720;48.274;7.796;2023-05-10T08:38:33;16.50;99.90
7360;DHT22;3720;48.274;7.796;2023-05-10T08:41:06;16.40;99.90
7360;DHT22;3720;48.274;7.796;2023-05-10T08:43:39;16.40;99.90
7360;DHT22;3720;48.274;7.796;2023-05-10T08:46:17;16.30;99.90
7360;DHT22;3720;48.274;7.796;2023-05-10T08:48:50;16.10;99.90
7360;DHT22;3720;48.274;7.796;2023-05-10T08:51:24;16.00;99.90
7360;DHT22;3720;48.274;7.796;2023-05-10T08:53:57;16.00;99.90
7360;DHT22;3720;48.274;7.796;2023-05-10T08:56:31;15.80;99.90
7360;DHT22;3720;48.274;7.796;2023-05-10T08:59:08;15.60;99.90
7360;DHT22;3720;48.274;7.796;2023-05-10T09:01:40;15.40;99.90
7360;DHT22;3720;48.274;7.796;2023-05-10T09:04:14;15.30;99.90
7360;DHT22;3720;48.274;7.796;2023-05-10T09:06:46;15.20;99.90
7360;DHT22;3720;48.274;7.796;2023-05-10T09:09:18;15.20;99.90
7360;DHT22;3720;48.274;7.796;2023-05-10T09:11:52;15.20;99.90
7360;DHT22;3720;48.274;7.796;2023-05-10T09:14:25;15.20;99.90
7360;DHT22;3720;48.274;7.796;2023-05-10T09:16:57;15.20;99.90
7360;DHT22;3720;48.274;7.796;2023-05-10T09:19:29;15.30;99.90
7360;DHT22;3720;48.274;7.796;2023-05-10T09:22:01;15.30;99.90
7360;DHT22;3720;48.274;7.796;2023-05-10T09:24:33;15.50;99.90
7360;DHT22;3720;48.274;7.796;2023-05-10T09:27:08;15.60;99.90
7360;DHT22;3720;48.274;7.796;2023-05-10T09:29:42;15.70;99.90
7360;DHT22;3720;48.274;7.796;2023-05-10T09:32:14;15.80;99.90
7360;DHT22;3720;48.274;7.796;2023-05-10T09:34:49;15.90;99.90
7360;DHT22;3720;48.274;7.796;2023-05-10T09:37:29;16.20;99.90
7360;DHT22;3720;48.274;7.796;2023-05-10T09:40:04;16.40;99.90
7360;DHT22;3720;48.274;7.796;2023-05-10T09:42:40;16.50;99.90
7360;DHT22;3720;48.274;7.796;2023-05-10T09:45:12;16.50;99.90
7360;DHT22;3720;48.274;7.796;2023-05-10T09:47:45;16.50;99.90
7360;DHT22;3720;48.274;7.796;2023-05-10T09:50:18;16.50;99.90
7360;DHT22;3720;48.274;7.796;2023-05-10T09:52:51;16.40;99.90
7360;DHT22;3720;48.274;7.796;2023-05-10T09:55:37;16.40;99.90
7360;DHT22;3720;48.274;7.796;2023-05-10T09:58:11;16.40;99.90
7360;DHT22;3720;48.274;7.796;2023-05-10T10:00:44;16.40;99.90
7360;DHT22;3720;48.274;7.796;2023-05-10T10:03:19;16.50;99.90
7360;DHT22;3720;48.274;7.796;2023-05-10T10:05:51;16.60;99.90
7360;DHT22;3720;48.274;7.796;2023-05-10T10:08:26;16.70;99.90
7360;DHT22;3720;48.274;7.796;2023-05-10T10:10:59;16.80;99.90
7360;DHT22;3720;48.274;7.796;2023-05-10T10:13:33;16.80;99.90
7360;DHT22;3720;48.274;7.796;2023-05-10T10:16:05;16.80;99.90
7360;DHT22;3720;48.274;7.796;2023-05-10T10:18:38;16.80;99.90
7360;DHT22;3720;48.274;7.796;2023-05-10T10:21:12;16.90;99.90
7360;DHT22;3720;48.274;7.796;2023-05-10T10:23:46;17.10;99.90
7360;DHT22;3720;48.274;7.796;2023-05-10T10:26:18;17.50;99.90
7360;DHT22;3720;48.274;7.796;2023-05-10T10:29:04;17.70;99.90
7360;DHT22;3720;48.274;7.796;2023-05-10T10:31:44;17.80;99.90
7360;DHT22;3720;48.274;7.796;2023-05-10T10:34:25;17.90;99.90
7360;DHT22;3720;48.274;7.796;2023-05-10T10:36:57;17.90;99.90
7360;DHT22;3720;48.274;7.796;2023-05-10T10:39:30;17.70;99.90
7360;DHT22;3720;48.274;7.796;2023-05-10T10:42:04;17.70;99.90
7360;DHT22;3720;48.274;7.796;2023-05-10T10:44:38;17.60;99.90
7360;DHT22;3720;48.274;7.796;2023-05-10T10:47:22;17.70;99.90
7360;DHT22;3720;48.274;7.796;2023-05-10T10:50:06;17.80;99.90
7360;DHT22;3720;48.274;7.796;2023-05-10T10:52:39;18.20;99.90
7360;DHT22;3720;48.274;7.796;2023-05-10T10:55:13;18.60;99.90
7360;DHT22;3720;48.274;7.796;2023-05-10T10:57:47;18.90;99.90
7360;DHT22;3720;48.274;7.796;2023-05-10T11:00:26;18.70;99.90
7360;DHT22;3720;48.274;7.796;2023-05-10T11:03:00;18.50;99.90
7360;DHT22;3720;48.274;7.796;2023-05-10T11:05:39;18.30;99.90
7360;DHT22;3720;48.274;7.796;2023-05-10T11:08:14;18.20;99.90
7360;DHT22;3720;48.274;7.796;2023-05-10T11:11:02;18.10;99.90
7360;DHT22;3720;48.274;7.796;2023-05-10T11:13:38;18.00;99.90
7360;DHT22;3720;48.274;7.796;2023-05-10T11:16:16;18.20;99.90
7360;DHT22;3720;48.274;7.796;2023-05-10T11:18:57;18.60;99.90
7360;DHT22;3720;48.274;7.796;2023-05-10T11:21:30;18.80;99.90
7360;DHT22;3720;48.274;7.796;2023-05-10T11:24:13;18.90;99.90
7360;DHT22;3720;48.274;7.796;2023-05-10T11:26:45;19.20;99.90
7360;DHT22;3720;48.274;7.796;2023-05-10T11:29:17;19.40;99.90
7360;DHT22;3720;48.274;7.796;2023-05-10T11:31:51;19.30;99.90
7360;DHT22;3720;48.274;7.796;2023-05-10T11:34:24;19.30;99.90
7360;DHT22;3720;48.274;7.796;2023-05-10T11:36:57;19.20;99.90
7360;DHT22;3720;48.274;7.796;2023-05-10T11:39:30;19.20;99.90
7360;DHT22;3720;48.274;7.796;2023-05-10T11:42:02;19.20;99.90
7360;DHT22;3720;48.274;7.796;2023-05-10T11:44:34;19.20;99.90
7360;DHT22;3720;48.274;7.796;2023-05-10T11:47:08;19.10;99.90
7360;DHT22;3720;48.274;7.796;2023-05-10T11:49:43;19.00;99.90
7360;DHT22;3720;48.274;7.796;2023-05-10T11:52:15;18.90;99.90
7360;DHT22;3720;48.274;7.796;2023-05-10T11:54:51;18.90;99.90
7360;DHT22;3720;48.274;7.796;2023-05-10T11:57:27;18.80;99.90
7360;DHT22;3720;48.274;7.796;2023-05-10T11:59:59;18.70;99.90
7360;DHT22;3720;48.274;7.796;2023-05-10T12:02:35;18.70;99.90
7360;DHT22;3720;48.274;7.796;2023-05-10T12:05:08;18.60;99.90
7360;DHT22;3720;48.274;7.796;2023-05-10T12:07:41;18.60;99.90
7360;DHT22;3720;48.274;7.796;2023-05-10T12:10:13;18.50;99.90
7360;DHT22;3720;48.274;7.796;2023-05-10T12:12:47;18.50;99.90
7360;DHT22;3720;48.274;7.796;2023-05-10T12:15:20;18.40;99.90
7360;DHT22;3720;48.274;7.796;2023-05-10T12:17:54;18.40;99.90
7360;DHT22;3720;48.274;7.796;2023-05-10T12:20:28;18.40;99.90
7360;DHT22;3720;48.274;7.796;2023-05-10T12:23:02;18.40;99.90
7360;DHT22;3720;48.274;7.796;2023-05-10T12:25:35;18.50;99.90
7360;DHT22;3720;48.274;7.796;2023-05-10T12:28:08;18.60;99.90
7360;DHT22;3720;48.274;7.796;2023-05-10T12:30:40;18.90;99.90
7360;DHT22;3720;48.274;7.796;2023-05-10T12:33:14;19.20;99.90
7360;DHT22;3720;48.274;7.796;2023-05-10T12:35:48;19.60;99.90
7360;DHT22;3720;48.274;7.796;2023-05-10T12:38:28;19.80;99.90
7360;DHT22;3720;48.274;7.796;2023-05-10T12:41:02;20.20;99.90
7360;DHT22;3720;48.274;7.796;2023-05-10T12:43:35;20.60;99.90
7360;DHT22;3720;48.274;7.796;2023-05-10T12:46:09;20.90;99.90
7360;DHT22;3720;48.274;7.796;2023-05-10T12:48:44;21.20;99.90
7360;DHT22;3720;48.274;7.796;2023-05-10T12:51:16;21.60;99.90
7360;DHT22;3720;48.274;7.796;2023-05-10T12:53:52;21.80;99.90
7360;DHT22;3720;48.274;7.796;2023-05-10T12:56:25;22.10;99.90
7360;DHT22;3720;48.274;7.796;2023-05-10T12:58:57;22.30;99.90
7360;DHT22;3720;48.274;7.796;2023-05-10T13:01:29;22.40;99.90
7360;DHT22;3720;48.274;7.796;2023-05-10T13:04:02;22.70;99.90
7360;DHT22;3720;48.274;7.796;2023-05-10T13:06:34;22.80;99.90
7360;DHT22;3720;48.274;7.796;2023-05-10T13:09:06;22.80;99.90
7360;DHT22;3720;48.274;7.796;2023-05-10T13:11:38;22.80;99.90
7360;DHT22;3720;48.274;7.796;2023-05-10T13:14:10;22.90;99.90
7360;DHT22;3720;48.274;7.796;2023-05-10T13:16:42;22.90;99.90
7360;DHT22;3720;48.274;7.796;2023-05-10T13:19:16;23.10;99.90
7360;DHT22;3720;48.274;7.796;2023-05-10T13:21:48;23.10;99.90
7360;DHT22;3720;48.274;7.796;2023-05-10T13:24:20;23.10;99.90
7360;DHT22;3720;48.274;7.796;2023-05-10T13:26:52;23.00;99.90
7360;DHT22;3720;48.274;7.796;2023-05-10T13:29:24;22.50;99.90
7360;DHT22;3720;48.274;7.796;2023-05-10T13:31:56;21.90;99.90
7360;DHT22;3720;48.274;7.796;2023-05-10T13:34:30;21.50;99.90
7360;DHT22;3720;48.274;7.796;2023-05-10T13:37:02;21.40;99.90
7360;DHT22;3720;48.274;7.796;2023-05-10T13:39:33;21.10;99.90
7360;DHT22;3720;48.274;7.796;2023-05-10T13:42:08;21.00;99.90
7360;DHT22;3720;48.274;7.796;2023-05-10T13:44:40;20.80;99.90
7360;DHT22;3720;48.274;7.796;2023-05-10T13:47:11;20.60;99.90
7360;DHT22;3720;48.274;7.796;2023-05-10T13:49:45;20.00;99.90
7360;DHT22;3720;48.274;7.796;2023-05-10T13:52:17;19.30;99.90
7360;DHT22;3720;48.274;7.796;2023-05-10T13:54:49;18.70;99.90
7360;DHT22;3720;48.274;7.796;2023-05-10T13:57:22;18.40;99.90
7360;DHT22;3720;48.274;7.796;2023-05-10T13:59:54;18.40;99.90
7360;DHT22;3720;48.274;7.796;2023-05-10T14:02:27;18.40;99.90
7360;DHT22;3720;48.274;7.796;2023-05-10T14:05:01;18.50;99.90
7360;DHT22;3720;48.274;7.796;2023-05-10T14:07:33;18.70;99.90
7360;DHT22;3720;48.274;7.796;2023-05-10T14:10:05;18.90;99.90
7360;DHT22;3720;48.274;7.796;2023-05-10T14:12:38;18.90;99.90
7360;DHT22;3720;48.274;7.796;2023-05-10T14:15:10;19.20;99.90
7360;DHT22;3720;48.274;7.796;2023-05-10T14:17:42;19.40;99.90
7360;DHT22;3720;48.274;7.796;2023-05-10T14:20:16;19.50;99.90
7360;DHT22;3720;48.274;7.796;2023-05-10T14:22:48;19.60;99.90
7360;DHT22;3720;48.274;7.796;2023-05-10T14:25:20;19.50;99.90
7360;DHT22;3720;48.274;7.796;2023-05-10T14:27:52;19.50;99.90
7360;DHT22;3720;48.274;7.796;2023-05-10T14:30:25;19.60;99.90
7360;DHT22;3720;48.274;7.796;2023-05-10T14:32:56;19.90;99.90
7360;DHT22;3720;48.274;7.796;2023-05-10T14:35:30;20.00;99.90
7360;DHT22;3720;48.274;7.796;2023-05-10T14:38:02;20.00;99.90
7360;DHT22;3720;48.274;7.796;2023-05-10T14:40:35;19.90;99.90
7360;DHT22;3720;48.274;7.796;2023-05-10T14:43:07;19.70;99.90
7360;DHT22;3720;48.274;7.796;2023-05-10T14:45:38;19.50;99.90
7360;DHT22;3720;48.274;7.796;2023-05-10T14:48:10;19.30;99.90
7360;DHT22;3720;48.274;7.796;2023-05-10T14:50:47;19.20;99.90
7360;DHT22;3720;48.274;7.796;2023-05-10T14:53:20;19.00;99.90
7360;DHT22;3720;48.274;7.796;2023-05-10T14:55:52;18.80;99.90
7360;DHT22;3720;48.274;7.796;2023-05-10T14:58:24;18.70;99.90
7360;DHT22;3720;48.274;7.796;2023-05-10T15:00:56;18.80;99.90
7360;DHT22;3720;48.274;7.796;2023-05-10T15:03:28;18.70;99.90
7360;DHT22;3720;48.274;7.796;2023-05-10T15:06:01;18.60;99.90
7360;DHT22;3720;48.274;7.796;2023-05-10T15:08:34;18.40;99.90
7360;DHT22;3720;48.274;7.796;2023-05-10T15:11:06;18.10;99.90
7360;DHT22;3720;48.274;7.796;2023-05-10T15:13:38;17.70;99.90
7360;DHT22;3720;48.274;7.796;2023-05-10T15:16:10;17.30;99.90
7360;DHT22;3720;48.274;7.796;2023-05-10T15:18:42;16.90;99.90
7360;DHT22;3720;48.274;7.796;2023-05-10T15:21:15;16.70;99.90
7360;DHT22;3720;48.274;7.796;2023-05-10T15:23:47;16.60;99.90
7360;DHT22;3720;48.274;7.796;2023-05-10T15:26:19;16.70;99.90
7360;DHT22;3720;48.274;7.796;2023-05-10T15:28:51;16.70;99.90
7360;DHT22;3720;48.274;7.796;2023-05-10T15:31:23;16.80;99.90
7360;DHT22;3720;48.274;7.796;2023-05-10T15:33:57;16.90;99.90
7360;DHT22;3720;48.274;7.796;2023-05-10T15:36:31;17.00;99.90
7360;DHT22;3720;48.274;7.796;2023-05-10T15:39:03;17.00;99.90
7360;DHT22;3720;48.274;7.796;2023-05-10T15:41:35;17.00;99.90
7360;DHT22;3720;48.274;7.796;2023-05-10T15:44:08;17.10;99.90
7360;DHT22;3720;48.274;7.796;2023-05-10T15:46:39;17.10;99.90
7360;DHT22;3720;48.274;7.796;2023-05-10T15:49:11;17.30;99.90
7360;DHT22;3720;48.274;7.796;2023-05-10T15:51:45;17.30;99.90
7360;DHT22;3720;48.274;7.796;2023-05-10T15:54:17;17.30;99.90
7360;DHT22;3720;48.274;7.796;2023-05-10T15:56:49;17.30;99.90
7360;DHT22;3720;48.274;7.796;2023-05-10T15:59:21;17.30;99.90
7360;DHT22;3720;48.274;7.796;2023-05-10T16:01:53;17.40;99.90
7360;DHT22;3720;48.274;7.796;2023-05-10T16:04:25;17.30;99.90
7360;DHT22;3720;48.274;7.796;2023-05-10T16:06:58;17.20;99.90
7360;DHT22;3720;48.274;7.796;2023-05-10T16:09:30;17.20;99.90
7360;DHT22;3720;48.274;7.796;2023-05-10T16:12:02;17.30;99.90
7360;DHT22;3720;48.274;7.796;2023-05-10T16:14:34;17.30;99.90
7360;DHT22;3720;48.274;7.796;2023-05-10T16:17:06;17.30;99.90
7360;DHT22;3720;48.274;7.796;2023-05-10T16:19:38;17.20;99.90
7360;DHT22;3720;48.274;7.796;2023-05-10T16:22:12;17.20;99.90
7360;DHT22;3720;48.274;7.796;2023-05-10T16:24:44;17.30;99.90
7360;DHT22;3720;48.274;7.796;2023-05-10T16:27:16;17.50;99.90
7360;DHT22;3720;48.274;7.796;2023-05-10T16:29:48;17.70;99.90
7360;DHT22;3720;48.274;7.796;2023-05-10T16:32:19;17.70;99.90
7360;DHT22;3720;48.274;7.796;2023-05-10T16:34:51;17.70;99.90
7360;DHT22;3720;48.274;7.796;2023-05-10T16:37:25;17.60;99.90
7360;DHT22;3720;48.274;7.796;2023-05-10T16:39:57;17.50;99.90
7360;DHT22;3720;48.274;7.796;2023-05-10T16:42:29;17.70;99.90
7360;DHT22;3720;48.274;7.796;2023-05-10T16:45:01;17.70;99.90
7360;DHT22;3720;48.274;7.796;2023-05-10T16:47:38;17.80;99.90